S. Bass — WDJ2053 — position and weather

sailwx.info

Track history (hours):
 
Tides and Currents Weather Stations Pressure Air Temp Water Temp Dewpoint Dewpoint Depression Visibility Wind Speed Wind Dir Waves Ship Positions

S. Bass

Owner: Pacific Maritime Freight, Inc., San Diego, CA. More information available from US FCC via Universal Licensing System and Coast Guard Vessel Documentation Center.

Last reported at 2018-Jun-21 20:36 UTC. Time now 2018-Jun-23 10:20 UTC.
Position N 33°46' W 118°13'.

Length 12 m; draft 2.5 m.

Type: Tug. MMSI: 367754810.

Date/timePositionNaut miles runAvg speedWind from/ knotsBaromVisibWave heightAir tempDewpointWater temp
2018-Jun-21 20:36N 33°46' W 118°13'  
2018-Jun-19 15:05N 33°46' W 118°13'0 0.0
2018-Jun-19 15:01N 33°46' W 118°13'0 0.5
2018-Jun-19 14:30N 33°47' W 118°13'0 0.5
2018-Jun-19 14:00N 33°46' W 118°13'1 2.6
2018-Jun-19 13:30N 33°45' W 118°13'3 5.5
2018-Jun-19 13:00N 33°43' W 118°16'1 2.0
2018-Jun-19 12:30N 33°44' W 118°15'0 0.0
2018-Jun-19 12:00N 33°44' W 118°15'0 0.0
2018-Jun-19 11:27N 33°44' W 118°15'0 0.5
2018-Jun-19 11:00N 33°44' W 118°15'1 1.1
2018-Jun-19 10:30N 33°44' W 118°16'3 5.2
2018-Jun-19 10:00N 33°45' W 118°13'1 2.7
2018-Jun-19 09:30N 33°46' W 118°13'0 0.0
2018-Jun-17 09:19N 33°46' W 118°13'1 2.3
2018-Jun-17 09:00N 33°46' W 118°13'3 6.5
2018-Jun-17 08:30N 33°43' W 118°15'1 2.1
2018-Jun-17 08:00N 33°44' W 118°15'0 0.0
2018-Jun-17 07:30N 33°44' W 118°15'0 0.0
2018-Jun-17 07:00N 33°44' W 118°15'1 2.5
2018-Jun-17 06:30N 33°43' W 118°14'3 6.2
2018-Jun-17 05:59N 33°46' W 118°13'0 0.8
2018-Jun-17 05:30N 33°46' W 118°13'  
Track history (hours):
 
Tides and Currents Weather Stations Pressure Air Temp Water Temp Dewpoint Dewpoint Depression Visibility Wind Speed Wind Dir Waves Ship Positions

S. Bass

Owner: Pacific Maritime Freight, Inc., San Diego, CA. More information available from US FCC via Universal Licensing System and Coast Guard Vessel Documentation Center.

Last reported at 2018-Jun-21 20:36 UTC. Time now 2018-Jun-23 10:20 UTC.
Position N 33°46' W 118°13'.

Length 12 m; draft 2.5 m.

Type: Tug. MMSI: 367754810.

Date/timePositionNaut miles runAvg speedWind from/ knotsBaromVisibWave heightAir tempDewpointWater temp
2018-Jun-21 20:36N 33°46' W 118°13'  
2018-Jun-19 15:05N 33°46' W 118°13'0 0.0
2018-Jun-19 15:01N 33°46' W 118°13'0 0.5
2018-Jun-19 14:30N 33°47' W 118°13'0 0.5
2018-Jun-19 14:00N 33°46' W 118°13'1 2.6
2018-Jun-19 13:30N 33°45' W 118°13'3 5.5
2018-Jun-19 13:00N 33°43' W 118°16'1 2.0
2018-Jun-19 12:30N 33°44' W 118°15'0 0.0
2018-Jun-19 12:00N 33°44' W 118°15'0 0.0
2018-Jun-19 11:27N 33°44' W 118°15'0 0.5
2018-Jun-19 11:00N 33°44' W 118°15'1 1.1
2018-Jun-19 10:30N 33°44' W 118°16'3 5.2
2018-Jun-19 10:00N 33°45' W 118°13'1 2.7
2018-Jun-19 09:30N 33°46' W 118°13'0 0.0
2018-Jun-17 09:19N 33°46' W 118°13'1 2.3
2018-Jun-17 09:00N 33°46' W 118°13'3 6.5
2018-Jun-17 08:30N 33°43' W 118°15'1 2.1
2018-Jun-17 08:00N 33°44' W 118°15'0 0.0
2018-Jun-17 07:30N 33°44' W 118°15'0 0.0
2018-Jun-17 07:00N 33°44' W 118°15'1 2.5
2018-Jun-17 06:30N 33°43' W 118°14'3 6.2
2018-Jun-17 05:59N 33°46' W 118°13'0 0.8
2018-Jun-17 05:30N 33°46' W 118°13'  

Dump ship's entire track history